Chuckatuck, Virginia
Current Conditions -  °F | °C
As of 9:55 PM on Friday 21 Nov 2014 (Local Time) from KPVG Reporting Station
Clear Clear  
Wind Chill: 21°   Ceiling: Unl
Heat Index: 21°   Visibility: 10mi
Dew Point: 16°   Wind: 0mph
Humidity: 80%   Direction: NA
Pressure: 30.59"   Gusts: NA
Location:  36.8725°N, 76.5524°W
Report Text: KPVG 220255Z AUTO 00000KT 10SM CLR M06/M09 A3059 RMK AO1 52010
Loading
Personal Weather Stations






























Interactive Weather Map New forecast layout! Learn more

10-Day Weather Forecast

Advertisements
Track Severe Weather on mobile